MUC | München Airways

 METAR UND TAF INFORMATION

METAR FOR EPKK
ADDS - METARS form results

(0321 UTC 24 January 2019)
Data provider http://aviationweather.gov/metar/data/
 
METAR text: EPKK 240300Z 06013KT 9999 OVC010 M06/M08 Q1007
Conditions at: EPKK (KRAKOW/BALICE , PL) observed 0300 UTC 24 January 2019
Temperature: -6.0°C (21°F)
Dewpoint: -8.0°C (18°F) [RH = 86%]
Pressure (altimeter): 29.73 inches Hg (1007.0 mb)
Winds: from the ENE (60 degrees) at 15 MPH (13 knots; 6.7 m/s)
Visibility: 6 or more miles (10+ km)
Ceiling: 1000 feet AGL
Clouds: overcast cloud deck at 1000 feet AGL
Weather: no significant weather observed at this time

METAR text: EPKK 240230Z 06014KT 9999 OVC010 M06/M08 Q1007
Conditions at: EPKK (KRAKOW/BALICE , PL) observed 0230 UTC 24 January 2019
Temperature: -6.0°C (21°F)
Dewpoint: -8.0°C (18°F) [RH = 86%]
Pressure (altimeter): 29.73 inches Hg (1007.0 mb)
Winds: from the ENE (60 degrees) at 16 MPH (14 knots; 7.2 m/s)
Visibility: 6 or more miles (10+ km)
Ceiling: 1000 feet AGL
Clouds: overcast cloud deck at 1000 feet AGL
Weather: no significant weather observed at this time

Forecast for: EPKK (KRAKOW/BALICE , PL)
Text: TAF EPKK 240230Z 2403/2503 07014KT 9999 OVC011
Forecast period: 0300 UTC 24 January 2019 to 0300 UTC 25 January 2019
Forecast type: FROM: standard forecast or significant change
Winds: from the ENE (70 degrees) at 16 MPH (14 knots; 7.2 m/s)
Visibility: 6 or more miles 10+ km)
Ceiling: 1100 feet AGL
Clouds: overcast cloud deck at 1100 feet AGL
Weather: no significant weather forecast for this period
Text: TEMPO 2403/2408 4000 -SN BR OVC009
Forecast period: 0300 to 0800 UTC 24 January 2019
Forecast type: TEMPORARY: The following changes expected for less than half the time period
Visibility: 2.49 miles (4.01 km)
Ceiling: 900 feet AGL
Clouds: overcast cloud deck at 900 feet AGL
Weather: -SN BR  (light snow, mist)
Text: TEMPO 2421/2503 2000 SN BR OVC004
Forecast period: 2100 UTC 24 January 2019 to 0300 UTC 25 January 2019
Forecast type: TEMPORARY: The following changes expected for less than half the time period
Visibility: 1.24 miles (2.00 km)
Ceiling: 400 feet AGL
Clouds: overcast cloud deck at 400 feet AGL
Weather: SN BR  (moderate snow, mist)

 FLUGHAFENKARTE

 RUNWAY INFORMATION
Runway 07 Runway length 8366 ft Runway width 197 ft
Runway elevation 792 ft Runway displaced threshold 0 ft Runway heading 78
Runway 25 Runway length 8366 ft Runway width 197 ft
Runway elevation 779 ft Runway displaced threshold 784 ft Runway heading 258

 AIRPORT FREQUENCIES
Type APP Name KRAKOW APP Frequency 121.075 MHZ
Type ATIS Name ATIS Frequency 126.125 MHZ
Type DIR Name KRAKOW DIR Frequency 123.8 MHZ
Type TWR Name KRAKOW TWR Frequency 123.25 MHZ
Type TWR Name KRAKOW DEL Frequency 118.1 MHZ

 AIRPORT NEAR NAVIGATION AIDS
Type NDB Name Krakow Frequency 353 KHZ